createdAt,value
2019-05-03T00:01:30.182Z,0.20
2019-05-03T00:03:59.413Z,0.30
2019-05-03T00:06:27.691Z,0.20
2019-05-03T00:08:55.839Z,0.20
2019-05-03T00:11:23.934Z,0.20
2019-05-03T00:13:52.529Z,0.10
2019-05-03T00:16:25.544Z,0.20
2019-05-03T00:18:53.741Z,0.10
2019-05-03T00:21:22.015Z,0.10
2019-05-03T00:23:52.161Z,0.20
2019-05-03T00:26:20.054Z,0.20
2019-05-03T00:28:48.398Z,0.20
2019-05-03T00:31:16.557Z,0.20
2019-05-03T00:33:46.386Z,0.20
2019-05-03T00:36:32.997Z,0.10
2019-05-03T00:39:02.882Z,0.10
2019-05-03T00:41:32.712Z,0.23
2019-05-03T00:44:02.233Z,0.20
2019-05-03T00:46:32.729Z,0.10
2019-05-03T00:49:01.070Z,0.30
2019-05-03T00:51:29.295Z,0.37
2019-05-03T00:53:57.554Z,0.20
2019-05-03T00:56:25.827Z,0.30
2019-05-03T00:58:55.664Z,0.10
2019-05-03T01:01:23.837Z,0.27
2019-05-03T01:03:52.714Z,0.20
2019-05-03T01:06:22.337Z,0.15
2019-05-03T01:08:52.296Z,0.10
2019-05-03T01:11:22.279Z,0.20
2019-05-03T01:13:52.198Z,0.17
2019-05-03T01:16:22.630Z,0.20
2019-05-03T01:18:52.271Z,0.13
2019-05-03T01:21:22.454Z,0.20
2019-05-03T01:23:52.324Z,0.20
2019-05-03T01:26:22.456Z,0.20
2019-05-03T01:28:51.965Z,0.20
2019-05-03T01:31:20.034Z,0.10
2019-05-03T01:33:48.180Z,0.15
2019-05-03T01:36:16.305Z,0.10
2019-05-03T01:38:44.495Z,0.20
2019-05-03T01:41:12.714Z,0.20
2019-05-03T01:43:41.834Z,0.10
2019-05-03T01:46:11.998Z,0.15
2019-05-03T01:48:54.184Z,0.00
2019-05-03T01:51:38.981Z,0.10
2019-05-03T01:54:07.164Z,0.20
2019-05-03T01:56:35.346Z,0.10
2019-05-03T01:59:03.605Z,0.10
2019-05-03T02:01:51.591Z,0.13
2019-05-03T02:04:22.554Z,0.10
2019-05-03T02:06:51.905Z,0.20
2019-05-03T02:09:21.642Z,0.10
2019-05-03T02:11:49.937Z,0.00
2019-05-03T02:14:18.111Z,0.10
2019-05-03T02:16:46.195Z,0.10
2019-05-03T02:19:14.377Z,0.10
2019-05-03T02:21:42.471Z,0.20
2019-05-03T02:24:11.833Z,0.05
2019-05-03T02:26:42.320Z,0.10
2019-05-03T02:29:10.076Z,0.20
2019-05-03T02:31:38.170Z,0.10
2019-05-03T02:34:06.348Z,0.00
2019-05-03T02:36:34.499Z,0.15
2019-05-03T02:39:03.048Z,0.10
2019-05-03T02:41:32.609Z,0.10
2019-05-03T02:44:00.783Z,0.10
2019-05-03T02:46:31.681Z,0.05
2019-05-03T02:49:06.437Z,0.10
2019-05-03T02:51:36.009Z,0.10
2019-05-03T02:54:05.586Z,0.10
2019-05-03T02:56:35.704Z,0.10
2019-05-03T02:59:06.160Z,0.10
2019-05-03T03:01:35.808Z,0.15
2019-05-03T03:04:05.234Z,0.15
2019-05-03T03:06:36.618Z,0.10
2019-05-03T03:09:05.584Z,0.20
2019-05-03T03:11:35.623Z,0.10
2019-05-03T03:14:05.824Z,0.10
2019-05-03T03:16:36.197Z,0.20
2019-05-03T03:19:06.767Z,0.10
2019-05-03T03:21:36.224Z,0.10
2019-05-03T03:24:06.389Z,0.23
2019-05-03T03:26:41.549Z,0.20
2019-05-03T03:29:07.138Z,0.10
2019-05-03T03:31:48.232Z,0.10
2019-05-03T03:34:18.338Z,0.10
2019-05-03T03:36:59.570Z,0.10
2019-05-03T03:39:17.996Z,0.10
2019-05-03T03:41:46.972Z,0.10
2019-05-03T03:44:16.630Z,0.10
2019-05-03T03:46:45.606Z,0.20
2019-05-03T03:49:15.890Z,0.10
2019-05-03T03:51:45.484Z,0.10
2019-05-03T03:54:15.572Z,0.10
2019-05-03T03:56:56.181Z,0.10
2019-05-03T03:59:15.377Z,0.20
2019-05-03T04:01:45.706Z,0.10
2019-05-03T04:04:16.079Z,0.10
2019-05-03T04:06:46.419Z,0.10
2019-05-03T04:09:15.996Z,0.20
2019-05-03T04:11:46.160Z,0.20
2019-05-03T04:14:20.966Z,0.10
2019-05-03T04:16:50.856Z,0.10
2019-05-03T04:19:25.123Z,0.20
2019-05-03T04:21:56.128Z,0.20
2019-05-03T04:24:25.840Z,0.10
2019-05-03T04:27:18.454Z,0.10
2019-05-03T04:29:37.862Z,0.10
2019-05-03T04:32:06.781Z,0.20
2019-05-03T04:34:35.932Z,0.20
2019-05-03T04:37:05.521Z,0.10
2019-05-03T04:39:35.953Z,0.10
2019-05-03T04:42:06.349Z,0.30
2019-05-03T04:44:35.806Z,0.20
2019-05-03T04:47:06.332Z,0.20
2019-05-03T04:49:35.967Z,0.20
2019-05-03T04:52:05.541Z,0.20
2019-05-03T04:54:35.587Z,0.20
2019-05-03T04:57:06.410Z,0.20
2019-05-03T04:59:35.869Z,0.20
2019-05-03T05:02:06.094Z,0.10
2019-05-03T05:04:35.700Z,0.20
2019-05-03T05:07:05.928Z,0.20
2019-05-03T05:09:34.985Z,0.20
2019-05-03T05:12:05.466Z,0.20
2019-05-03T05:14:35.037Z,0.30
2019-05-03T05:17:02.547Z,0.20
2019-05-03T05:19:35.743Z,0.30
2019-05-03T05:22:09.668Z,0.10
2019-05-03T05:24:37.897Z,0.25
2019-05-03T05:27:07.592Z,0.20
2019-05-03T05:29:37.347Z,0.20
2019-05-03T05:32:05.451Z,0.20
2019-05-03T05:34:34.943Z,0.28
2019-05-03T05:37:05.278Z,0.25
2019-05-03T05:39:33.126Z,0.20
2019-05-03T05:42:01.260Z,0.30
2019-05-03T05:44:29.712Z,0.20
2019-05-03T05:47:15.787Z,0.20
2019-05-03T05:49:45.590Z,0.20
2019-05-03T05:52:15.473Z,0.25
2019-05-03T05:54:45.642Z,0.20
2019-05-03T05:57:25.631Z,0.20
2019-05-03T06:00:02.386Z,0.20
2019-05-03T06:02:30.732Z,0.10
2019-05-03T06:04:59.237Z,0.20
2019-05-03T06:07:41.295Z,0.20
2019-05-03T06:10:14.117Z,0.30
2019-05-03T06:12:45.514Z,0.30
2019-05-03T06:15:15.464Z,0.23
2019-05-03T06:17:45.154Z,0.20
2019-05-03T06:20:17.886Z,0.28
2019-05-03T06:22:47.648Z,0.20
2019-05-03T06:25:20.366Z,0.10
2019-05-03T06:27:49.519Z,0.17
2019-05-03T06:30:22.142Z,0.20
2019-05-03T06:32:50.215Z,0.20
2019-05-03T06:35:18.276Z,0.20
2019-05-03T06:37:47.940Z,0.20
2019-05-03T06:40:16.237Z,0.20
2019-05-03T06:42:52.297Z,0.35
2019-05-03T06:45:15.061Z,0.20
2019-05-03T06:47:46.081Z,0.17
2019-05-03T06:50:14.559Z,0.20
2019-05-03T06:52:44.527Z,0.33
2019-05-03T06:55:14.544Z,0.40
2019-05-03T06:57:45.626Z,0.10
2019-05-03T07:00:24.890Z,0.20
2019-05-03T07:02:57.792Z,0.10
2019-05-03T07:05:44.429Z,0.10
2019-05-03T07:08:30.981Z,0.10
2019-05-03T07:11:00.917Z,0.10
2019-05-03T07:13:29.233Z,0.17
2019-05-03T07:15:57.352Z,0.10
2019-05-03T07:18:25.424Z,0.13
2019-05-03T07:20:57.065Z,0.10
2019-05-03T07:23:24.974Z,0.10
2019-05-03T07:25:55.028Z,0.10
2019-05-03T07:28:24.778Z,0.10
2019-05-03T07:30:54.418Z,0.30
2019-05-03T07:33:27.077Z,0.20
2019-05-03T07:35:55.306Z,0.10
2019-05-03T07:38:24.820Z,0.10
2019-05-03T07:40:54.983Z,0.20
2019-05-03T07:43:24.550Z,0.10
2019-05-03T07:45:55.086Z,0.33
2019-05-03T07:48:22.736Z,0.10
2019-05-03T07:50:50.867Z,0.20
2019-05-03T07:53:18.932Z,0.10
2019-05-03T07:55:57.761Z,0.33
2019-05-03T07:58:30.155Z,0.20
2019-05-03T08:01:06.281Z,0.20
2019-05-03T08:03:29.822Z,0.10
2019-05-03T08:05:57.982Z,0.10
2019-05-03T08:08:26.042Z,0.15
2019-05-03T08:10:54.963Z,0.10
2019-05-03T08:13:25.300Z,0.23
2019-05-03T08:15:55.785Z,0.20
2019-05-03T08:18:25.757Z,0.17
2019-05-03T08:20:55.618Z,0.10
2019-05-03T08:23:29.718Z,0.10
2019-05-03T08:25:55.656Z,0.17
2019-05-03T08:28:24.889Z,0.28
2019-05-03T08:31:10.847Z,0.20
2019-05-03T08:33:55.215Z,0.30
2019-05-03T08:36:24.641Z,0.20
2019-05-03T08:38:52.470Z,0.30
2019-05-03T08:41:22.208Z,0.30
2019-05-03T08:43:50.369Z,0.10
2019-05-03T08:46:18.482Z,0.30
2019-05-03T08:48:46.974Z,0.17
2019-05-03T08:51:15.101Z,0.40
2019-05-03T08:53:45.658Z,0.20
2019-05-03T08:56:13.064Z,0.30
2019-05-03T08:58:41.234Z,0.30
2019-05-03T09:01:09.309Z,0.20
2019-05-03T09:03:38.457Z,0.20
2019-05-03T09:06:06.779Z,0.20
2019-05-03T09:08:35.495Z,0.20
2019-05-03T09:11:11.162Z,0.10
2019-05-03T09:13:45.118Z,0.20
2019-05-03T09:16:14.738Z,0.10
2019-05-03T09:18:45.266Z,0.20
2019-05-03T09:21:14.631Z,0.20
2019-05-03T09:23:44.822Z,0.20
2019-05-03T09:26:12.470Z,0.30
2019-05-03T09:28:40.596Z,0.42
2019-05-03T09:31:08.696Z,0.30
2019-05-03T09:33:36.860Z,0.40
2019-05-03T09:36:05.411Z,0.50
2019-05-03T09:38:34.981Z,0.30
2019-05-03T09:41:05.225Z,0.25
2019-05-03T09:43:35.508Z,0.33
2019-05-03T09:46:05.149Z,0.30
2019-05-03T09:48:34.659Z,0.20
2019-05-03T09:51:05.036Z,0.20
2019-05-03T09:53:44.651Z,0.07
2019-05-03T09:56:12.827Z,0.23
2019-05-03T09:58:40.988Z,0.25
2019-05-03T10:01:09.250Z,0.10
2019-05-03T10:03:37.427Z,0.20
2019-05-03T10:06:05.577Z,0.25
2019-05-03T10:08:35.694Z,0.35
2019-05-03T10:11:15.556Z,0.30
2019-05-03T10:13:48.060Z,0.30
2019-05-03T10:16:15.648Z,0.20
2019-05-03T10:18:45.665Z,0.30
2019-05-03T10:21:14.797Z,0.30
2019-05-03T10:23:45.265Z,0.20
2019-05-03T10:26:15.009Z,0.20
2019-05-03T10:28:42.915Z,0.28
2019-05-03T10:31:11.039Z,0.20
2019-05-03T10:33:40.765Z,0.20
2019-05-03T10:36:08.910Z,0.13
2019-05-03T10:38:37.243Z,0.20
2019-05-03T10:41:05.882Z,0.20
2019-05-03T10:43:35.580Z,0.30
2019-05-03T10:46:05.116Z,0.28
2019-05-03T10:48:35.353Z,0.10
2019-05-03T10:51:04.679Z,0.33
2019-05-03T10:53:34.871Z,0.08
2019-05-03T10:56:24.444Z,0.23
2019-05-03T10:59:02.845Z,0.37
2019-05-03T11:01:49.195Z,0.50
2019-05-03T11:04:17.414Z,0.50
2019-05-03T11:06:45.874Z,0.45
2019-05-03T11:09:15.324Z,0.40
2019-05-03T11:11:45.334Z,0.53
2019-05-03T11:14:14.943Z,0.33
2019-05-03T11:16:43.200Z,0.60
2019-05-03T11:19:11.298Z,0.50
2019-05-03T11:21:39.520Z,0.50
2019-05-03T11:24:07.778Z,0.30
2019-05-03T11:26:36.240Z,0.50
2019-05-03T11:29:05.194Z,0.50
2019-05-03T11:31:47.198Z,0.30
2019-05-03T11:34:22.512Z,0.20
2019-05-03T11:37:07.731Z,0.40
2019-05-03T11:39:35.921Z,0.30
2019-05-03T11:42:04.686Z,0.30
2019-05-03T11:44:39.403Z,0.20
2019-05-03T11:47:08.505Z,0.30
2019-05-03T11:49:36.762Z,0.40
2019-05-03T11:52:06.464Z,0.50
2019-05-03T11:54:35.880Z,0.37
2019-05-03T11:57:06.010Z,0.33
2019-05-03T11:59:34.488Z,0.50
2019-05-03T12:02:16.880Z,0.50
2019-05-03T12:04:45.867Z,0.50
2019-05-03T12:07:18.240Z,0.30
2019-05-03T12:09:45.607Z,0.30
2019-05-03T12:12:15.351Z,0.35
2019-05-03T12:14:45.269Z,0.27
2019-05-03T12:17:21.044Z,0.20
2019-05-03T12:19:47.379Z,0.57
2019-05-03T12:24:45.844Z,0.20
2019-05-03T12:27:15.017Z,0.40
2019-05-03T12:29:44.726Z,0.13
2019-05-03T12:32:14.427Z,0.40
2019-05-03T12:34:42.743Z,0.40
2019-05-03T12:37:10.888Z,0.45
2019-05-03T12:39:39.014Z,0.40
2019-05-03T12:42:07.399Z,0.50
2019-05-03T12:44:35.680Z,0.53
2019-05-03T12:47:06.044Z,0.60
2019-05-03T12:49:35.897Z,0.50
2019-05-03T12:52:05.261Z,0.40
2019-05-03T12:54:35.630Z,0.55
2019-05-03T12:57:05.053Z,0.70
2019-05-03T12:59:37.840Z,0.50
2019-05-03T13:02:11.599Z,0.53
2019-05-03T13:04:41.390Z,0.80
2019-05-03T13:07:17.060Z,0.60
2019-05-03T13:09:45.400Z,0.47
2019-05-03T13:12:15.345Z,0.37
2019-05-03T13:14:45.407Z,0.30
2019-05-03T13:17:15.225Z,0.30
2019-05-03T13:19:45.190Z,0.33
2019-05-03T13:22:13.206Z,0.30
2019-05-03T13:24:41.287Z,0.40
2019-05-03T13:27:09.399Z,0.40
2019-05-03T13:29:37.513Z,0.40
2019-05-03T13:32:05.800Z,0.40
2019-05-03T13:34:35.408Z,0.57
2019-05-03T13:37:03.946Z,0.50
2019-05-03T13:39:32.109Z,0.30
2019-05-03T13:42:00.251Z,0.50
2019-05-03T13:44:28.353Z,0.40
2019-05-03T13:46:56.599Z,0.37
2019-05-03T13:49:26.472Z,0.33
2019-05-03T13:51:54.528Z,0.40
2019-05-03T13:54:22.677Z,0.70
2019-05-03T13:56:50.863Z,0.75
2019-05-03T13:59:22.075Z,0.62
2019-05-03T14:01:48.761Z,0.40
2019-05-03T14:04:16.811Z,0.42
2019-05-03T14:06:45.985Z,0.50
2019-05-03T14:09:14.081Z,0.60
2019-05-03T14:11:42.349Z,0.65
2019-05-03T14:14:10.563Z,0.40
2019-05-03T14:16:38.698Z,0.40
2019-05-03T14:19:08.455Z,0.40
2019-05-03T14:21:47.131Z,0.50
2019-05-03T14:24:15.811Z,0.40
2019-05-03T14:26:44.793Z,0.40
2019-05-03T14:29:14.851Z,0.37
2019-05-03T14:31:45.172Z,0.30
2019-05-03T14:34:16.911Z,0.20
2019-05-03T14:36:42.528Z,0.37
2019-05-03T14:39:10.628Z,0.30
2019-05-03T14:41:39.639Z,0.28
2019-05-03T14:44:07.853Z,0.30
2019-05-03T14:46:36.384Z,0.13
2019-05-03T14:49:05.484Z,0.20
2019-05-03T14:51:34.979Z,0.13
2019-05-03T14:54:05.410Z,0.10
2019-05-03T14:56:37.514Z,0.20
2019-05-03T14:59:07.427Z,0.10
2019-05-03T15:01:37.538Z,0.17
2019-05-03T15:04:05.913Z,0.20
2019-05-03T15:06:35.384Z,0.20
2019-05-03T15:09:05.423Z,0.20
2019-05-03T15:11:34.560Z,0.28
2019-05-03T15:14:03.184Z,0.20
2019-05-03T15:16:31.274Z,0.40
2019-05-03T15:18:59.342Z,0.50
2019-05-03T15:21:27.547Z,0.40
2019-05-03T15:23:55.735Z,0.30
2019-05-03T15:26:24.903Z,0.37
2019-05-03T15:28:55.311Z,0.30
2019-05-03T15:31:24.582Z,0.40
2019-05-03T15:33:55.363Z,0.40
2019-05-03T15:36:22.838Z,0.23
2019-05-03T15:38:50.976Z,0.40
2019-05-03T15:41:19.176Z,0.40
2019-05-03T15:43:48.979Z,0.40
2019-05-03T15:46:31.056Z,0.30
2019-05-03T15:49:04.595Z,0.30
2019-05-03T15:51:32.857Z,0.30
2019-05-03T15:54:01.005Z,0.20
2019-05-03T15:56:29.076Z,0.30
2019-05-03T15:58:57.161Z,0.30
2019-05-03T16:01:25.353Z,0.30
2019-05-03T16:03:55.609Z,0.37
2019-05-03T16:06:24.841Z,0.30
2019-05-03T16:08:55.098Z,0.20
2019-05-03T16:11:25.206Z,0.40
2019-05-03T16:13:52.863Z,0.20
2019-05-03T16:16:20.954Z,0.30
2019-05-03T16:18:49.028Z,0.25
2019-05-03T16:21:17.116Z,0.40
2019-05-03T16:23:46.737Z,0.45
2019-05-03T16:26:14.978Z,0.30
2019-05-03T16:28:55.248Z,0.30
2019-05-03T16:31:26.665Z,0.40
2019-05-03T16:33:55.067Z,0.30
2019-05-03T16:36:23.169Z,0.20
2019-05-03T16:38:51.342Z,0.30
2019-05-03T16:41:19.564Z,0.20
2019-05-03T16:43:47.757Z,0.30
2019-05-03T16:46:15.888Z,0.20
2019-05-03T16:48:44.872Z,0.20
2019-05-03T16:51:15.066Z,0.30
2019-05-03T16:53:44.556Z,0.30
2019-05-03T16:56:16.528Z,0.40
2019-05-03T16:58:44.465Z,0.30
2019-05-03T17:01:15.899Z,0.40
2019-05-03T17:03:45.756Z,0.40
2019-05-03T17:06:18.694Z,0.47
2019-05-03T17:08:57.558Z,0.30
2019-05-03T17:11:26.419Z,0.30
2019-05-03T17:13:55.390Z,0.40
2019-05-03T17:16:25.203Z,0.30
2019-05-03T17:18:55.077Z,0.28
2019-05-03T17:21:25.321Z,0.50
2019-05-03T17:23:53.003Z,0.30
2019-05-03T17:26:21.177Z,0.20
2019-05-03T17:28:49.408Z,0.30
2019-05-03T17:31:17.634Z,0.40
2019-05-03T17:33:53.276Z,0.50
2019-05-03T17:36:15.518Z,0.40
2019-05-03T17:38:44.354Z,0.30
2019-05-03T17:41:23.207Z,0.50
2019-05-03T17:43:55.586Z,0.30
2019-05-03T17:46:25.501Z,0.37
2019-05-03T17:48:54.728Z,0.42
2019-05-03T17:51:38.401Z,0.57
2019-05-03T17:54:11.065Z,0.40
2019-05-03T17:56:57.552Z,0.53
2019-05-03T17:59:39.573Z,0.30
2019-05-03T18:02:12.246Z,0.30
2019-05-03T18:04:41.988Z,0.45
2019-05-03T18:07:11.761Z,0.40
2019-05-03T18:09:41.561Z,0.30
2019-05-03T18:12:09.624Z,0.30
2019-05-03T18:14:37.699Z,0.30
2019-05-03T18:17:05.984Z,0.28
2019-05-03T18:19:34.394Z,0.20
2019-05-03T18:22:05.013Z,0.30
2019-05-03T18:24:32.521Z,0.30
2019-05-03T18:27:00.640Z,0.20
2019-05-03T18:29:28.747Z,0.20
2019-05-03T18:31:56.830Z,0.30
2019-05-03T18:34:25.358Z,0.20
2019-05-03T18:36:53.513Z,0.25
2019-05-03T18:39:21.582Z,0.20
2019-05-03T18:41:49.678Z,0.28
2019-05-03T18:44:22.291Z,0.30
2019-05-03T18:47:01.031Z,0.20
2019-05-03T18:49:29.185Z,0.40
2019-05-03T18:51:57.355Z,0.50
2019-05-03T18:54:25.519Z,0.30
2019-05-03T18:56:55.594Z,0.30
2019-05-03T18:59:23.709Z,0.60
2019-05-03T19:01:52.111Z,0.37
2019-05-03T19:04:31.393Z,0.30
2019-05-03T19:07:02.007Z,0.30
2019-05-03T19:09:29.071Z,0.23
2019-05-03T19:12:01.575Z,0.40
2019-05-03T19:14:29.641Z,0.23
2019-05-03T19:17:15.785Z,0.30
2019-05-03T19:19:55.201Z,0.35
2019-05-03T19:22:24.977Z,0.40
2019-05-03T19:24:53.397Z,0.40
2019-05-03T19:27:21.470Z,0.30
2019-05-03T19:29:49.630Z,0.33
2019-05-03T19:32:17.711Z,0.20
2019-05-03T19:34:51.036Z,0.20
2019-05-03T19:37:15.643Z,0.30
2019-05-03T19:39:43.777Z,0.35
2019-05-03T19:42:12.317Z,0.30
2019-05-03T19:44:40.803Z,0.30
2019-05-03T19:47:08.938Z,0.20
2019-05-03T19:49:37.971Z,0.40
2019-05-03T19:52:06.109Z,0.40
2019-05-03T19:54:36.159Z,0.50
2019-05-03T19:57:05.024Z,0.35
2019-05-03T19:59:50.206Z,0.33
2019-05-03T20:02:25.727Z,0.40
2019-05-03T20:05:12.110Z,0.35
2019-05-03T20:07:51.261Z,0.30
2019-05-03T20:10:19.338Z,0.20
2019-05-03T20:12:47.406Z,0.40
2019-05-03T20:15:15.554Z,0.60
2019-05-03T20:17:54.635Z,0.40
2019-05-03T20:20:15.381Z,0.50
2019-05-03T20:22:45.107Z,0.50
2019-05-03T20:25:15.193Z,0.60
2019-05-03T20:27:44.494Z,0.40
2019-05-03T20:30:14.979Z,0.40
2019-05-03T20:32:44.930Z,0.20
2019-05-03T20:35:18.901Z,0.37
2019-05-03T20:37:44.715Z,0.20
2019-05-03T20:40:12.717Z,0.20
2019-05-03T20:42:58.801Z,0.20
2019-05-03T20:45:35.440Z,0.30
2019-05-03T20:48:06.525Z,0.20
2019-05-03T20:50:35.264Z,0.30
2019-05-03T20:53:05.381Z,0.28
2019-05-03T20:55:34.751Z,0.13
2019-05-03T20:58:02.970Z,0.30
2019-05-03T21:00:31.136Z,0.30
2019-05-03T21:02:59.308Z,0.20
2019-05-03T21:05:31.241Z,0.20
2019-05-03T21:07:57.148Z,0.30
2019-05-03T21:10:25.386Z,0.30
2019-05-03T21:12:54.424Z,0.30
2019-05-03T21:15:24.749Z,0.40
2019-05-03T21:17:57.311Z,0.40
2019-05-03T21:20:27.179Z,0.30
2019-05-03T21:22:55.277Z,0.30
2019-05-03T21:25:25.031Z,0.23
2019-05-03T21:27:53.239Z,0.30
2019-05-03T21:30:21.462Z,0.35
2019-05-03T21:32:49.528Z,0.40
2019-05-03T21:35:17.600Z,0.30
2019-05-03T21:37:45.675Z,0.30
2019-05-03T21:40:15.511Z,0.33
2019-05-03T21:42:45.191Z,0.20
2019-05-03T21:45:15.106Z,0.30
2019-05-03T21:47:45.199Z,0.20
2019-05-03T21:50:14.956Z,0.10
2019-05-03T21:52:43.049Z,0.17
2019-05-03T21:55:11.178Z,0.30
2019-05-03T21:57:39.268Z,0.20
2019-05-03T22:00:08.365Z,0.10
2019-05-03T22:05:06.347Z,0.30
2019-05-03T22:07:35.015Z,0.20
2019-05-03T22:10:05.004Z,0.20
2019-05-03T22:12:33.309Z,0.30
2019-05-03T22:15:18.378Z,0.30
2019-05-03T22:17:54.128Z,0.30
2019-05-03T22:20:26.562Z,0.10
2019-05-03T22:22:59.252Z,0.20
2019-05-03T22:25:31.746Z,0.20
2019-05-03T22:27:59.796Z,0.20
2019-05-03T22:30:27.865Z,0.25
2019-05-03T22:32:55.903Z,0.10
2019-05-03T22:35:25.118Z,0.20
2019-05-03T22:37:55.053Z,0.20
2019-05-03T22:40:24.976Z,0.20
2019-05-03T22:42:53.267Z,0.20
2019-05-03T22:45:21.384Z,0.35
2019-05-03T22:47:50.600Z,0.30
2019-05-03T22:50:18.741Z,0.30
2019-05-03T22:52:46.910Z,0.23
2019-05-03T22:55:15.354Z,0.20
2019-05-03T22:57:43.660Z,0.25
2019-05-03T23:00:12.096Z,0.23
2019-05-03T23:02:41.873Z,0.20
2019-05-03T23:05:09.944Z,0.30
2019-05-03T23:07:38.044Z,0.30
2019-05-03T23:10:06.545Z,0.30
2019-05-03T23:12:34.925Z,0.30
2019-05-03T23:15:05.055Z,0.20
2019-05-03T23:17:34.636Z,0.15
2019-05-03T23:20:15.079Z,0.20
2019-05-03T23:22:43.208Z,0.30
2019-05-03T23:25:11.339Z,0.30
2019-05-03T23:27:39.394Z,0.23
2019-05-03T23:30:07.937Z,0.20
2019-05-03T23:32:36.030Z,0.20
2019-05-03T23:35:05.278Z,0.30
2019-05-03T23:37:34.630Z,0.37
2019-05-03T23:40:04.513Z,0.28
2019-05-03T23:45:04.718Z,0.23
2019-05-03T23:47:37.012Z,0.30
2019-05-03T23:50:07.030Z,0.20
2019-05-03T23:52:36.267Z,0.30
2019-05-03T23:55:06.503Z,0.30
2019-05-03T23:57:35.673Z,0.30
